sensor_id;sensor_type;location;lat;lon;timestamp;temperature;humidity
15481;DHT22;7842;50.904;6.670;2022-10-04T00:00:26;10.20;99.90
15481;DHT22;7842;50.904;6.670;2022-10-04T00:02:55;10.20;99.90
15481;DHT22;7842;50.904;6.670;2022-10-04T00:05:24;10.20;99.90
15481;DHT22;7842;50.904;6.670;2022-10-04T00:07:55;10.20;99.90
15481;DHT22;7842;50.904;6.670;2022-10-04T00:13:01;10.20;99.90
15481;DHT22;7842;50.904;6.670;2022-10-04T00:15:33;10.20;99.90
15481;DHT22;7842;50.904;6.670;2022-10-04T00:18:22;10.10;99.90
15481;DHT22;7842;50.904;6.670;2022-10-04T00:31:08;10.10;99.90
15481;DHT22;7842;50.904;6.670;2022-10-04T00:33:37;10.00;99.90
15481;DHT22;7842;50.904;6.670;2022-10-04T00:44:01;9.80;99.90
15481;DHT22;7842;50.904;6.670;2022-10-04T00:46:29;9.80;99.90
15481;DHT22;7842;50.904;6.670;2022-10-04T00:48:57;9.80;99.90
15481;DHT22;7842;50.904;6.670;2022-10-04T00:56:46;9.70;99.90
15481;DHT22;7842;50.904;6.670;2022-10-04T00:59:38;9.70;99.90
15481;DHT22;7842;50.904;6.670;2022-10-04T01:02:13;9.70;99.90
15481;DHT22;7842;50.904;6.670;2022-10-04T01:07:16;9.70;99.90
15481;DHT22;7842;50.904;6.670;2022-10-04T01:09:56;9.70;99.90
15481;DHT22;7842;50.904;6.670;2022-10-04T01:12:55;9.70;99.90
15481;DHT22;7842;50.904;6.670;2022-10-04T01:15:41;9.70;99.90
15481;DHT22;7842;50.904;6.670;2022-10-04T01:18:15;9.80;99.90
15481;DHT22;7842;50.904;6.670;2022-10-04T01:26:00;10.00;99.90
15481;DHT22;7842;50.904;6.670;2022-10-04T01:28:27;10.00;99.90
15481;DHT22;7842;50.904;6.670;2022-10-04T01:30:53;10.10;99.90
15481;DHT22;7842;50.904;6.670;2022-10-04T01:33:19;10.10;99.90
15481;DHT22;7842;50.904;6.670;2022-10-04T01:35:45;10.00;99.90
15481;DHT22;7842;50.904;6.670;2022-10-04T01:38:11;10.60;99.90
15481;DHT22;7842;50.904;6.670;2022-10-04T01:40:46;10.10;99.90
15481;DHT22;7842;50.904;6.670;2022-10-04T01:43:16;10.10;99.90
15481;DHT22;7842;50.904;6.670;2022-10-04T01:45:49;10.00;99.90
15481;DHT22;7842;50.904;6.670;2022-10-04T01:48:21;10.10;99.90
15481;DHT22;7842;50.904;6.670;2022-10-04T01:50:57;10.10;99.90
15481;DHT22;7842;50.904;6.670;2022-10-04T01:55:52;10.10;99.90
15481;DHT22;7842;50.904;6.670;2022-10-04T01:58:25;10.10;99.90
15481;DHT22;7842;50.904;6.670;2022-10-04T02:01:21;10.10;99.90
15481;DHT22;7842;50.904;6.670;2022-10-04T02:03:56;10.10;99.90
15481;DHT22;7842;50.904;6.670;2022-10-04T02:06:23;10.20;99.90
15481;DHT22;7842;50.904;6.670;2022-10-04T02:08:50;10.10;99.90
15481;DHT22;7842;50.904;6.670;2022-10-04T02:11:23;10.10;99.90
15481;DHT22;7842;50.904;6.670;2022-10-04T02:13:51;10.00;99.90
15481;DHT22;7842;50.904;6.670;2022-10-04T02:16:18;10.00;99.90
15481;DHT22;7842;50.904;6.670;2022-10-04T02:18:45;10.00;99.90
15481;DHT22;7842;50.904;6.670;2022-10-04T02:21:13;10.50;99.90
15481;DHT22;7842;50.904;6.670;2022-10-04T02:23:40;9.90;99.90
15481;DHT22;7842;50.904;6.670;2022-10-04T02:26:07;9.90;99.90
15481;DHT22;7842;50.904;6.670;2022-10-04T02:28:35;10.10;99.90
15481;DHT22;7842;50.904;6.670;2022-10-04T02:31:01;10.10;99.90
15481;DHT22;7842;50.904;6.670;2022-10-04T02:33:49;10.20;99.90
15481;DHT22;7842;50.904;6.670;2022-10-04T02:36:16;9.80;99.90
15481;DHT22;7842;50.904;6.670;2022-10-04T02:38:48;9.70;99.90
15481;DHT22;7842;50.904;6.670;2022-10-04T02:44:15;9.70;99.90
15481;DHT22;7842;50.904;6.670;2022-10-04T02:49:45;9.70;99.90
15481;DHT22;7842;50.904;6.670;2022-10-04T02:54:55;9.70;99.90
15481;DHT22;7842;50.904;6.670;2022-10-04T02:57:23;9.70;99.90
15481;DHT22;7842;50.904;6.670;2022-10-04T02:59:50;9.80;99.90
15481;DHT22;7842;50.904;6.670;2022-10-04T03:02:23;9.80;99.90
15481;DHT22;7842;50.904;6.670;2022-10-04T03:04:50;9.70;99.90
15481;DHT22;7842;50.904;6.670;2022-10-04T03:07:17;9.70;99.90
15481;DHT22;7842;50.904;6.670;2022-10-04T03:09:44;9.70;99.90
15481;DHT22;7842;50.904;6.670;2022-10-04T03:12:11;9.60;99.90
15481;DHT22;7842;50.904;6.670;2022-10-04T03:14:38;9.60;99.90
15481;DHT22;7842;50.904;6.670;2022-10-04T03:17:04;9.60;99.90
15481;DHT22;7842;50.904;6.670;2022-10-04T03:19:32;9.50;99.90
15481;DHT22;7842;50.904;6.670;2022-10-04T03:22:02;9.50;99.90
15481;DHT22;7842;50.904;6.670;2022-10-04T03:24:35;9.50;99.90
15481;DHT22;7842;50.904;6.670;2022-10-04T03:27:05;9.50;99.90
15481;DHT22;7842;50.904;6.670;2022-10-04T03:29:32;9.50;99.90
15481;DHT22;7842;50.904;6.670;2022-10-04T03:32:02;10.30;99.90
15481;DHT22;7842;50.904;6.670;2022-10-04T03:34:34;9.40;99.90
15481;DHT22;7842;50.904;6.670;2022-10-04T03:37:01;9.40;99.90
15481;DHT22;7842;50.904;6.670;2022-10-04T03:39:41;9.40;99.90
15481;DHT22;7842;50.904;6.670;2022-10-04T03:44:44;9.30;99.90
15481;DHT22;7842;50.904;6.670;2022-10-04T03:47:23;9.30;99.90
15481;DHT22;7842;50.904;6.670;2022-10-04T03:49:51;9.50;99.90
15481;DHT22;7842;50.904;6.670;2022-10-04T03:52:24;9.30;99.90
15481;DHT22;7842;50.904;6.670;2022-10-04T03:54:53;9.20;99.90
15481;DHT22;7842;50.904;6.670;2022-10-04T03:57:21;9.30;99.90
15481;DHT22;7842;50.904;6.670;2022-10-04T03:59:48;9.40;99.90
15481;DHT22;7842;50.904;6.670;2022-10-04T04:05:25;9.40;99.90
15481;DHT22;7842;50.904;6.670;2022-10-04T04:10:52;9.30;99.90
15481;DHT22;7842;50.904;6.670;2022-10-04T04:13:26;9.40;99.90
15481;DHT22;7842;50.904;6.670;2022-10-04T04:15:55;9.40;99.90
15481;DHT22;7842;50.904;6.670;2022-10-04T04:18:26;9.40;99.90
15481;DHT22;7842;50.904;6.670;2022-10-04T04:20:55;9.30;99.90
15481;DHT22;7842;50.904;6.670;2022-10-04T04:23:29;9.30;99.90
15481;DHT22;7842;50.904;6.670;2022-10-04T04:28:42;9.20;99.90
15481;DHT22;7842;50.904;6.670;2022-10-04T04:31:22;9.20;99.90
15481;DHT22;7842;50.904;6.670;2022-10-04T04:33:59;9.10;99.90
15481;DHT22;7842;50.904;6.670;2022-10-04T04:36:27;9.10;99.90
15481;DHT22;7842;50.904;6.670;2022-10-04T04:39:04;9.00;99.90
15481;DHT22;7842;50.904;6.670;2022-10-04T04:41:49;9.00;99.90
15481;DHT22;7842;50.904;6.670;2022-10-04T04:44:17;9.00;99.90
15481;DHT22;7842;50.904;6.670;2022-10-04T04:46:46;9.00;99.90
15481;DHT22;7842;50.904;6.670;2022-10-04T04:49:15;8.90;99.90
15481;DHT22;7842;50.904;6.670;2022-10-04T04:51:46;8.90;99.90
15481;DHT22;7842;50.904;6.670;2022-10-04T04:54:14;9.00;99.90
15481;DHT22;7842;50.904;6.670;2022-10-04T04:56:41;9.00;99.90
15481;DHT22;7842;50.904;6.670;2022-10-04T04:59:08;9.00;99.90
15481;DHT22;7842;50.904;6.670;2022-10-04T05:01:47;8.90;99.90
15481;DHT22;7842;50.904;6.670;2022-10-04T05:07:05;9.00;99.90
15481;DHT22;7842;50.904;6.670;2022-10-04T05:09:36;8.90;99.90
15481;DHT22;7842;50.904;6.670;2022-10-04T05:12:25;9.00;99.90
15481;DHT22;7842;50.904;6.670;2022-10-04T05:14:53;9.00;99.90
15481;DHT22;7842;50.904;6.670;2022-10-04T05:17:19;9.00;99.90
15481;DHT22;7842;50.904;6.670;2022-10-04T05:19:47;9.00;99.90
15481;DHT22;7842;50.904;6.670;2022-10-04T05:22:19;9.00;99.90
15481;DHT22;7842;50.904;6.670;2022-10-04T05:24:48;9.80;99.90
15481;DHT22;7842;50.904;6.670;2022-10-04T05:27:17;9.70;99.90
15481;DHT22;7842;50.904;6.670;2022-10-04T05:30:06;9.00;99.90
15481;DHT22;7842;50.904;6.670;2022-10-04T05:35:16;9.00;99.90
15481;DHT22;7842;50.904;6.670;2022-10-04T05:40:47;9.00;99.90
15481;DHT22;7842;50.904;6.670;2022-10-04T05:43:45;9.00;99.90
15481;DHT22;7842;50.904;6.670;2022-10-04T05:48:43;8.90;99.90
15481;DHT22;7842;50.904;6.670;2022-10-04T05:51:24;9.00;99.90
15481;DHT22;7842;50.904;6.670;2022-10-04T05:53:51;9.00;99.90
15481;DHT22;7842;50.904;6.670;2022-10-04T05:59:05;9.00;99.90
15481;DHT22;7842;50.904;6.670;2022-10-04T06:13:03;9.20;99.90
15481;DHT22;7842;50.904;6.670;2022-10-04T06:19:01;9.10;99.90
15481;DHT22;7842;50.904;6.670;2022-10-04T06:21:38;9.10;99.90
15481;DHT22;7842;50.904;6.670;2022-10-04T06:24:14;9.20;99.90
15481;DHT22;7842;50.904;6.670;2022-10-04T06:26:42;9.00;99.90
15481;DHT22;7842;50.904;6.670;2022-10-04T06:29:17;9.10;99.90
15481;DHT22;7842;50.904;6.670;2022-10-04T06:35:36;9.10;99.90
15481;DHT22;7842;50.904;6.670;2022-10-04T06:46:50;9.50;99.90
15481;DHT22;7842;50.904;6.670;2022-10-04T06:49:20;9.50;99.90
15481;DHT22;7842;50.904;6.670;2022-10-04T06:52:12;9.80;99.90
15481;DHT22;7842;50.904;6.670;2022-10-04T06:57:46;9.70;99.90
15481;DHT22;7842;50.904;6.670;2022-10-04T07:00:21;9.70;99.90
15481;DHT22;7842;50.904;6.670;2022-10-04T07:03:04;10.10;99.90
15481;DHT22;7842;50.904;6.670;2022-10-04T07:05:47;10.00;99.90
15481;DHT22;7842;50.904;6.670;2022-10-04T07:14:08;10.60;99.90
15481;DHT22;7842;50.904;6.670;2022-10-04T07:16:45;10.80;99.90
15481;DHT22;7842;50.904;6.670;2022-10-04T07:19:27;11.20;99.90
15481;DHT22;7842;50.904;6.670;2022-10-04T07:27:27;11.30;99.90
15481;DHT22;7842;50.904;6.670;2022-10-04T07:29:56;11.20;99.90
15481;DHT22;7842;50.904;6.670;2022-10-04T07:32:37;11.30;99.90
15481;DHT22;7842;50.904;6.670;2022-10-04T07:38:08;11.70;99.90
15481;DHT22;7842;50.904;6.670;2022-10-04T07:40:33;11.30;99.90
15481;DHT22;7842;50.904;6.670;2022-10-04T07:43:25;11.50;99.90
15481;DHT22;7842;50.904;6.670;2022-10-04T07:46:03;11.30;99.90
15481;DHT22;7842;50.904;6.670;2022-10-04T07:48:32;11.30;99.90
15481;DHT22;7842;50.904;6.670;2022-10-04T07:51:18;11.50;99.90
15481;DHT22;7842;50.904;6.670;2022-10-04T08:03:02;11.10;99.90
15481;DHT22;7842;50.904;6.670;2022-10-04T08:05:38;11.20;99.90
15481;DHT22;7842;50.904;6.670;2022-10-04T08:11:21;11.40;99.90
15481;DHT22;7842;50.904;6.670;2022-10-04T08:14:01;11.40;99.90
15481;DHT22;7842;50.904;6.670;2022-10-04T08:16:42;11.40;99.90
15481;DHT22;7842;50.904;6.670;2022-10-04T08:19:41;11.50;99.90
15481;DHT22;7842;50.904;6.670;2022-10-04T08:28:34;11.60;99.90
15481;DHT22;7842;50.904;6.670;2022-10-04T08:34:30;11.80;99.90
15481;DHT22;7842;50.904;6.670;2022-10-04T08:37:06;12.00;99.90
15481;DHT22;7842;50.904;6.670;2022-10-04T08:42:45;12.10;99.90
15481;DHT22;7842;50.904;6.670;2022-10-04T08:56:41;12.70;99.90
15481;DHT22;7842;50.904;6.670;2022-10-04T08:59:48;12.80;99.90
15481;DHT22;7842;50.904;6.670;2022-10-04T09:02:52;13.00;99.90
15481;DHT22;7842;50.904;6.670;2022-10-04T09:09:08;13.30;99.90
15481;DHT22;7842;50.904;6.670;2022-10-04T09:16:52;14.10;99.90
15481;DHT22;7842;50.904;6.670;2022-10-04T09:22:18;14.30;99.90
15481;DHT22;7842;50.904;6.670;2022-10-04T09:25:49;14.70;99.90
15481;DHT22;7842;50.904;6.670;2022-10-04T09:33:51;14.70;99.90
15481;DHT22;7842;50.904;6.670;2022-10-04T09:47:57;15.20;99.90
15481;DHT22;7842;50.904;6.670;2022-10-04T10:01:37;15.60;99.90
15481;DHT22;7842;50.904;6.670;2022-10-04T10:04:29;15.70;99.90
15481;DHT22;7842;50.904;6.670;2022-10-04T10:09:53;15.60;99.90
15481;DHT22;7842;50.904;6.670;2022-10-04T10:30:12;15.80;99.90
15481;DHT22;7842;50.904;6.670;2022-10-04T10:40:27;15.90;99.90
15481;DHT22;7842;50.904;6.670;2022-10-04T10:49:13;15.90;99.90
15481;DHT22;7842;50.904;6.670;2022-10-04T10:54:57;16.10;99.90
15481;DHT22;7842;50.904;6.670;2022-10-04T11:09:27;16.50;99.90
15481;DHT22;7842;50.904;6.670;2022-10-04T11:21:19;16.80;99.90
15481;DHT22;7842;50.904;6.670;2022-10-04T11:41:05;17.10;99.90
15481;DHT22;7842;50.904;6.670;2022-10-04T11:43:56;17.20;99.90
15481;DHT22;7842;50.904;6.670;2022-10-04T11:49:30;17.30;99.90
15481;DHT22;7842;50.904;6.670;2022-10-04T11:57:29;17.40;99.90
15481;DHT22;7842;50.904;6.670;2022-10-04T12:00:07;17.30;99.90
15481;DHT22;7842;50.904;6.670;2022-10-04T12:03:06;17.40;99.90
15481;DHT22;7842;50.904;6.670;2022-10-04T12:06:06;17.60;99.90
15481;DHT22;7842;50.904;6.670;2022-10-04T12:11:41;17.80;99.90
15481;DHT22;7842;50.904;6.670;2022-10-04T12:23:21;18.10;99.90
15481;DHT22;7842;50.904;6.670;2022-10-04T12:31:17;18.20;99.90
15481;DHT22;7842;50.904;6.670;2022-10-04T12:47:42;18.40;99.90
15481;DHT22;7842;50.904;6.670;2022-10-04T12:50:21;18.50;99.90
15481;DHT22;7842;50.904;6.670;2022-10-04T12:52:52;18.50;99.90
15481;DHT22;7842;50.904;6.670;2022-10-04T13:21:09;18.70;99.90
15481;DHT22;7842;50.904;6.670;2022-10-04T13:26:41;18.90;99.90
15481;DHT22;7842;50.904;6.670;2022-10-04T13:31:56;19.10;99.90
15481;DHT22;7842;50.904;6.670;2022-10-04T13:45:20;19.40;99.90
15481;DHT22;7842;50.904;6.670;2022-10-04T13:48:10;19.40;99.90
15481;DHT22;7842;50.904;6.670;2022-10-04T13:51:00;19.50;99.90
15481;DHT22;7842;50.904;6.670;2022-10-04T14:05:11;19.60;99.90
15481;DHT22;7842;50.904;6.670;2022-10-04T14:07:48;19.60;99.90
15481;DHT22;7842;50.904;6.670;2022-10-04T14:16:17;19.60;99.90
15481;DHT22;7842;50.904;6.670;2022-10-04T14:38:42;19.60;99.90
15481;DHT22;7842;50.904;6.670;2022-10-04T14:41:34;19.70;99.90
15481;DHT22;7842;50.904;6.670;2022-10-04T14:47:33;19.70;99.90
15481;DHT22;7842;50.904;6.670;2022-10-04T14:52:47;19.70;99.90
15481;DHT22;7842;50.904;6.670;2022-10-04T15:01:04;19.50;99.90
15481;DHT22;7842;50.904;6.670;2022-10-04T15:06:37;19.60;99.90
15481;DHT22;7842;50.904;6.670;2022-10-04T15:17:35;19.40;99.90
15481;DHT22;7842;50.904;6.670;2022-10-04T15:20:24;19.30;99.90
15481;DHT22;7842;50.904;6.670;2022-10-04T15:30:50;19.30;99.90
15481;DHT22;7842;50.904;6.670;2022-10-04T15:33:38;19.30;99.90
15481;DHT22;7842;50.904;6.670;2022-10-04T15:36:13;19.30;99.90
15481;DHT22;7842;50.904;6.670;2022-10-04T15:38:56;19.40;99.90
15481;DHT22;7842;50.904;6.670;2022-10-04T15:41:35;19.30;99.90
15481;DHT22;7842;50.904;6.670;2022-10-04T15:52:52;19.60;99.90
15481;DHT22;7842;50.904;6.670;2022-10-04T15:55:50;19.60;99.90
15481;DHT22;7842;50.904;6.670;2022-10-04T15:58:42;19.40;99.90
15481;DHT22;7842;50.904;6.670;2022-10-04T16:01:35;19.50;99.90
15481;DHT22;7842;50.904;6.670;2022-10-04T16:06:52;19.40;99.90
15481;DHT22;7842;50.904;6.670;2022-10-04T16:09:49;19.40;99.90
15481;DHT22;7842;50.904;6.670;2022-10-04T16:12:40;19.40;99.90
15481;DHT22;7842;50.904;6.670;2022-10-04T16:23:33;19.10;99.90
15481;DHT22;7842;50.904;6.670;2022-10-04T16:28:48;18.90;99.90
15481;DHT22;7842;50.904;6.670;2022-10-04T16:34:33;18.70;99.90
15481;DHT22;7842;50.904;6.670;2022-10-04T16:47:36;18.60;99.90
15481;DHT22;7842;50.904;6.670;2022-10-04T16:50:09;18.40;99.90
15481;DHT22;7842;50.904;6.670;2022-10-04T16:52:59;18.30;99.90
15481;DHT22;7842;50.904;6.670;2022-10-04T16:55:53;18.20;99.90
15481;DHT22;7842;50.904;6.670;2022-10-04T17:12:19;17.70;99.90
15481;DHT22;7842;50.904;6.670;2022-10-04T17:20:58;17.30;99.90
15481;DHT22;7842;50.904;6.670;2022-10-04T17:23:57;17.20;99.90
15481;DHT22;7842;50.904;6.670;2022-10-04T17:32:26;16.80;99.90
15481;DHT22;7842;50.904;6.670;2022-10-04T17:37:53;16.70;99.90
15481;DHT22;7842;50.904;6.670;2022-10-04T17:43:26;16.50;99.90
15481;DHT22;7842;50.904;6.670;2022-10-04T17:46:00;16.50;99.90
15481;DHT22;7842;50.904;6.670;2022-10-04T17:48:30;16.40;99.90
15481;DHT22;7842;50.904;6.670;2022-10-04T17:54:31;16.30;99.90
15481;DHT22;7842;50.904;6.670;2022-10-04T18:00:14;16.10;99.90
15481;DHT22;7842;50.904;6.670;2022-10-04T18:08:27;15.80;99.90
15481;DHT22;7842;50.904;6.670;2022-10-04T18:11:00;15.80;99.90
15481;DHT22;7842;50.904;6.670;2022-10-04T18:22:20;15.60;99.90
15481;DHT22;7842;50.904;6.670;2022-10-04T18:24:48;15.50;99.90
15481;DHT22;7842;50.904;6.670;2022-10-04T18:27:27;15.40;99.90
15481;DHT22;7842;50.904;6.670;2022-10-04T18:30:11;15.30;99.90
15481;DHT22;7842;50.904;6.670;2022-10-04T18:32:48;15.30;99.90
15481;DHT22;7842;50.904;6.670;2022-10-04T18:35:30;15.20;99.90
15481;DHT22;7842;50.904;6.670;2022-10-04T18:38:21;15.10;99.90
15481;DHT22;7842;50.904;6.670;2022-10-04T18:41:00;15.10;99.90
15481;DHT22;7842;50.904;6.670;2022-10-04T18:43:34;15.00;99.90
15481;DHT22;7842;50.904;6.670;2022-10-04T18:46:18;15.00;99.90
15481;DHT22;7842;50.904;6.670;2022-10-04T18:48:52;14.60;99.90
15481;DHT22;7842;50.904;6.670;2022-10-04T18:51:28;15.00;99.90
15481;DHT22;7842;50.904;6.670;2022-10-04T18:56:48;14.80;99.90
15481;DHT22;7842;50.904;6.670;2022-10-04T19:03:04;14.70;99.90
15481;DHT22;7842;50.904;6.670;2022-10-04T19:05:53;14.60;99.90
15481;DHT22;7842;50.904;6.670;2022-10-04T19:08:47;14.60;99.90
15481;DHT22;7842;50.904;6.670;2022-10-04T19:14:46;14.50;99.90
15481;DHT22;7842;50.904;6.670;2022-10-04T19:17:22;14.70;99.90
15481;DHT22;7842;50.904;6.670;2022-10-04T19:20:09;14.40;99.90
15481;DHT22;7842;50.904;6.670;2022-10-04T19:25:35;14.40;99.90
15481;DHT22;7842;50.904;6.670;2022-10-04T19:28:08;14.40;99.90
15481;DHT22;7842;50.904;6.670;2022-10-04T19:33:43;14.20;99.90
15481;DHT22;7842;50.904;6.670;2022-10-04T19:36:40;14.10;99.90
15481;DHT22;7842;50.904;6.670;2022-10-04T19:44:47;13.90;99.90
15481;DHT22;7842;50.904;6.670;2022-10-04T19:47:43;13.80;99.90
15481;DHT22;7842;50.904;6.670;2022-10-04T19:50:43;13.80;99.90
15481;DHT22;7842;50.904;6.670;2022-10-04T19:53:32;13.70;99.90
15481;DHT22;7842;50.904;6.670;2022-10-04T19:56:00;13.70;99.90
15481;DHT22;7842;50.904;6.670;2022-10-04T20:00:56;13.60;99.90
15481;DHT22;7842;50.904;6.670;2022-10-04T20:03:22;13.50;99.90
15481;DHT22;7842;50.904;6.670;2022-10-04T20:05:50;13.50;99.90
15481;DHT22;7842;50.904;6.670;2022-10-04T20:11:28;13.40;99.90
15481;DHT22;7842;50.904;6.670;2022-10-04T20:21:55;13.20;99.90
15481;DHT22;7842;50.904;6.670;2022-10-04T20:34:56;13.20;99.90
15481;DHT22;7842;50.904;6.670;2022-10-04T20:45:52;12.90;99.90
15481;DHT22;7842;50.904;6.670;2022-10-04T20:48:23;12.80;99.90
15481;DHT22;7842;50.904;6.670;2022-10-04T20:50:49;13.10;99.90
15481;DHT22;7842;50.904;6.670;2022-10-04T20:53:20;12.80;99.90
15481;DHT22;7842;50.904;6.670;2022-10-04T20:55:47;12.80;99.90
15481;DHT22;7842;50.904;6.670;2022-10-04T20:58:26;12.80;99.90
15481;DHT22;7842;50.904;6.670;2022-10-04T21:00:55;12.60;99.90
15481;DHT22;7842;50.904;6.670;2022-10-04T21:03:22;12.50;99.90
15481;DHT22;7842;50.904;6.670;2022-10-04T21:06:08;12.70;99.90
15481;DHT22;7842;50.904;6.670;2022-10-04T21:08:36;12.50;99.90
15481;DHT22;7842;50.904;6.670;2022-10-04T21:11:19;12.50;99.90
15481;DHT22;7842;50.904;6.670;2022-10-04T21:16:45;12.40;99.90
15481;DHT22;7842;50.904;6.670;2022-10-04T21:22:10;12.20;99.90
15481;DHT22;7842;50.904;6.670;2022-10-04T21:27:32;12.10;99.90
15481;DHT22;7842;50.904;6.670;2022-10-04T21:30:00;12.10;99.90
15481;DHT22;7842;50.904;6.670;2022-10-04T21:32:31;12.10;99.90
15481;DHT22;7842;50.904;6.670;2022-10-04T21:34:58;12.20;99.90
15481;DHT22;7842;50.904;6.670;2022-10-04T21:37:24;12.10;99.90
15481;DHT22;7842;50.904;6.670;2022-10-04T21:39:49;12.20;99.90
15481;DHT22;7842;50.904;6.670;2022-10-04T21:42:15;12.20;99.90
15481;DHT22;7842;50.904;6.670;2022-10-04T21:44:41;12.00;99.90
15481;DHT22;7842;50.904;6.670;2022-10-04T21:47:06;11.90;99.90
15481;DHT22;7842;50.904;6.670;2022-10-04T21:49:32;11.80;99.90
15481;DHT22;7842;50.904;6.670;2022-10-04T21:51:58;11.90;99.90
15481;DHT22;7842;50.904;6.670;2022-10-04T21:54:23;11.90;99.90
15481;DHT22;7842;50.904;6.670;2022-10-04T21:56:49;11.70;99.90
15481;DHT22;7842;50.904;6.670;2022-10-04T21:59:14;11.70;99.90
15481;DHT22;7842;50.904;6.670;2022-10-04T22:01:40;11.90;99.90
15481;DHT22;7842;50.904;6.670;2022-10-04T22:04:06;11.80;99.90
15481;DHT22;7842;50.904;6.670;2022-10-04T22:06:31;11.70;99.90
15481;DHT22;7842;50.904;6.670;2022-10-04T22:08:57;11.90;99.90
15481;DHT22;7842;50.904;6.670;2022-10-04T22:11:22;11.60;99.90
15481;DHT22;7842;50.904;6.670;2022-10-04T22:13:48;11.60;99.90
15481;DHT22;7842;50.904;6.670;2022-10-04T22:16:14;11.70;99.90
15481;DHT22;7842;50.904;6.670;2022-10-04T22:18:39;11.60;99.90
15481;DHT22;7842;50.904;6.670;2022-10-04T22:21:05;11.70;99.90
15481;DHT22;7842;50.904;6.670;2022-10-04T22:23:36;11.70;99.90
15481;DHT22;7842;50.904;6.670;2022-10-04T22:26:15;11.90;99.90
15481;DHT22;7842;50.904;6.670;2022-10-04T22:28:50;11.60;99.90
15481;DHT22;7842;50.904;6.670;2022-10-04T22:31:17;11.50;99.90
15481;DHT22;7842;50.904;6.670;2022-10-04T22:33:46;11.70;99.90
15481;DHT22;7842;50.904;6.670;2022-10-04T22:36:26;11.40;99.90
15481;DHT22;7842;50.904;6.670;2022-10-04T22:38:58;11.50;99.90
15481;DHT22;7842;50.904;6.670;2022-10-04T22:41:30;11.50;99.90
15481;DHT22;7842;50.904;6.670;2022-10-04T22:44:01;11.80;99.90
15481;DHT22;7842;50.904;6.670;2022-10-04T22:46:38;11.50;99.90
15481;DHT22;7842;50.904;6.670;2022-10-04T22:49:13;11.50;99.90
15481;DHT22;7842;50.904;6.670;2022-10-04T22:51:41;11.50;99.90
15481;DHT22;7842;50.904;6.670;2022-10-04T22:54:21;11.50;99.90
15481;DHT22;7842;50.904;6.670;2022-10-04T22:56:47;11.30;99.90
15481;DHT22;7842;50.904;6.670;2022-10-04T22:59:16;11.50;99.90
15481;DHT22;7842;50.904;6.670;2022-10-04T23:01:43;11.50;99.90
15481;DHT22;7842;50.904;6.670;2022-10-04T23:04:14;11.60;99.90
15481;DHT22;7842;50.904;6.670;2022-10-04T23:06:40;11.50;99.90
15481;DHT22;7842;50.904;6.670;2022-10-04T23:09:06;11.40;99.90
15481;DHT22;7842;50.904;6.670;2022-10-04T23:11:32;11.70;99.90
15481;DHT22;7842;50.904;6.670;2022-10-04T23:13:57;11.60;99.90
15481;DHT22;7842;50.904;6.670;2022-10-04T23:16:23;11.40;99.90
15481;DHT22;7842;50.904;6.670;2022-10-04T23:18:50;11.40;99.90
15481;DHT22;7842;50.904;6.670;2022-10-04T23:21:24;11.40;99.90
15481;DHT22;7842;50.904;6.670;2022-10-04T23:23:51;11.40;99.90
15481;DHT22;7842;50.904;6.670;2022-10-04T23:26:22;11.40;99.90
15481;DHT22;7842;50.904;6.670;2022-10-04T23:28:49;11.40;99.90
15481;DHT22;7842;50.904;6.670;2022-10-04T23:31:22;11.40;99.90
15481;DHT22;7842;50.904;6.670;2022-10-04T23:33:49;11.50;99.90
15481;DHT22;7842;50.904;6.670;2022-10-04T23:36:15;11.40;99.90
15481;DHT22;7842;50.904;6.670;2022-10-04T23:38:56;11.20;99.90
15481;DHT22;7842;50.904;6.670;2022-10-04T23:41:24;11.60;99.90
15481;DHT22;7842;50.904;6.670;2022-10-04T23:43:50;11.30;99.90
15481;DHT22;7842;50.904;6.670;2022-10-04T23:46:18;11.30;99.90
15481;DHT22;7842;50.904;6.670;2022-10-04T23:48:44;11.50;99.90
15481;DHT22;7842;50.904;6.670;2022-10-04T23:51:13;11.40;99.90
15481;DHT22;7842;50.904;6.670;2022-10-04T23:53:40;11.20;99.90
15481;DHT22;7842;50.904;6.670;2022-10-04T23:56:16;11.20;99.90
15481;DHT22;7842;50.904;6.670;2022-10-04T23:58:42;11.20;99.90
